sensor_id;sensor_type;location;lat;lon;timestamp;pressure;altitude;pressure_sealevel;temperature;humidity
62800;BME280;48842;51.046;13.796;2022-09-12T00:01:22;100509.44;;;18.93;nan
62800;BME280;48842;51.046;13.796;2022-09-12T00:03:52;100508.63;;;18.91;nan
62800;BME280;48842;51.046;13.796;2022-09-12T00:06:21;100511.28;;;18.91;nan
62800;BME280;48842;51.046;13.796;2022-09-12T00:08:47;100502.41;;;18.91;nan
62800;BME280;48842;51.046;13.796;2022-09-12T00:11:12;100506.81;;;18.92;nan
62800;BME280;48842;51.046;13.796;2022-09-12T00:13:39;100505.06;;;18.91;nan
62800;BME280;48842;51.046;13.796;2022-09-12T00:16:05;100509.47;;;18.92;nan
62800;BME280;48842;51.046;13.796;2022-09-12T00:18:31;100505.03;;;18.92;nan
62800;BME280;48842;51.046;13.796;2022-09-12T00:21:00;100511.22;;;18.93;nan
62800;BME280;48842;51.046;13.796;2022-09-12T00:23:26;100510.28;;;18.95;nan
62800;BME280;48842;51.046;13.796;2022-09-12T00:25:51;100507.59;;;18.97;nan
62800;BME280;48842;51.046;13.796;2022-09-12T00:28:17;100510.19;;;18.98;nan
62800;BME280;48842;51.046;13.796;2022-09-12T00:30:44;100506.63;;;18.98;nan
62800;BME280;48842;51.046;13.796;2022-09-12T00:33:10;100504.88;;;18.98;nan
62800;BME280;48842;51.046;13.796;2022-09-12T00:35:49;100504.88;;;18.98;nan
62800;BME280;48842;51.046;13.796;2022-09-12T00:38:17;100506.59;;;18.99;nan
62800;BME280;48842;51.046;13.796;2022-09-12T00:40:42;100503.91;;;19.01;nan
62800;BME280;48842;51.046;13.796;2022-09-12T00:43:13;100504.88;;;18.98;nan
62800;BME280;48842;51.046;13.796;2022-09-12T00:45:39;100501.28;;;18.99;nan
62800;BME280;48842;51.046;13.796;2022-09-12T00:48:17;100500.38;;;19.00;nan
62800;BME280;48842;51.046;13.796;2022-09-12T00:50:45;100489.72;;;19.02;nan
62800;BME280;48842;51.046;13.796;2022-09-12T00:53:10;100497.69;;;19.02;nan
62800;BME280;48842;51.046;13.796;2022-09-12T00:55:46;100498.53;;;19.02;nan
62800;BME280;48842;51.046;13.796;2022-09-12T00:58:19;100498.53;;;19.04;nan
62800;BME280;48842;51.046;13.796;2022-09-12T01:00:46;100495.81;;;19.06;nan
62800;BME280;48842;51.046;13.796;2022-09-12T01:03:13;100495.81;;;19.06;nan
62800;BME280;48842;51.046;13.796;2022-09-12T01:05:43;100491.41;;;19.05;nan
62800;BME280;48842;51.046;13.796;2022-09-12T01:08:11;100500.25;;;19.05;nan
62800;BME280;48842;51.046;13.796;2022-09-12T01:10:39;100494.94;;;19.05;nan
62800;BME280;48842;51.046;13.796;2022-09-12T01:13:06;100491.47;;;19.03;nan
62800;BME280;48842;51.046;13.796;2022-09-12T01:15:32;100492.41;;;19.00;nan
62800;BME280;48842;51.046;13.796;2022-09-12T01:18:15;100489.03;;;18.95;nan
62800;BME280;48842;51.046;13.796;2022-09-12T01:21:14;100485.59;;;18.92;nan
62800;BME280;48842;51.046;13.796;2022-09-12T01:24:11;100487.47;;;18.88;nan
62800;BME280;48842;51.046;13.796;2022-09-12T01:27:12;100489.28;;;18.84;nan
62800;BME280;48842;51.046;13.796;2022-09-12T01:30:04;100495.53;;;18.82;nan
62800;BME280;48842;51.046;13.796;2022-09-12T01:33:00;100494.78;;;18.78;nan
62800;BME280;48842;51.046;13.796;2022-09-12T01:38:41;100493.97;;;18.75;nan
62800;BME280;48842;51.046;13.796;2022-09-12T01:41:26;100487.84;;;18.73;nan
62800;BME280;48842;51.046;13.796;2022-09-12T01:46:46;100485.28;;;18.70;nan
62800;BME280;48842;51.046;13.796;2022-09-12T01:49:18;100480.03;;;18.68;nan
62800;BME280;48842;51.046;13.796;2022-09-12T01:51:54;100478.28;;;18.67;nan
62800;BME280;48842;51.046;13.796;2022-09-12T01:54:36;100475.66;;;18.65;nan
62800;BME280;48842;51.046;13.796;2022-09-12T01:57:12;100471.25;;;18.64;nan
62800;BME280;48842;51.046;13.796;2022-09-12T01:59:44;100469.50;;;18.65;nan
62800;BME280;48842;51.046;13.796;2022-09-12T02:02:25;100470.44;;;18.62;nan
62800;BME280;48842;51.046;13.796;2022-09-12T02:05:02;100466.88;;;18.63;nan
62800;BME280;48842;51.046;13.796;2022-09-12T02:07:37;100474.84;;;18.63;nan
62800;BME280;48842;51.046;13.796;2022-09-12T02:10:15;100473.06;;;18.64;nan
62800;BME280;48842;51.046;13.796;2022-09-12T02:12:52;100473.09;;;18.62;nan
62800;BME280;48842;51.046;13.796;2022-09-12T02:15:23;100470.44;;;18.62;nan
62800;BME280;48842;51.046;13.796;2022-09-12T02:17:51;100477.50;;;18.63;nan
62800;BME280;48842;51.046;13.796;2022-09-12T02:20:21;100466.00;;;18.63;nan
62800;BME280;48842;51.046;13.796;2022-09-12T02:22:49;100458.06;;;18.61;nan
62800;BME280;48842;51.046;13.796;2022-09-12T02:25:18;100464.28;;;18.62;nan
62800;BME280;48842;51.046;13.796;2022-09-12T02:27:48;100463.38;;;18.61;nan
62800;BME280;48842;51.046;13.796;2022-09-12T02:30:13;100453.66;;;18.62;nan
62800;BME280;48842;51.046;13.796;2022-09-12T02:32:53;100465.22;;;18.59;nan
62800;BME280;48842;51.046;13.796;2022-09-12T02:35:38;100463.47;;;18.58;nan
62800;BME280;48842;51.046;13.796;2022-09-12T02:38:18;100467.91;;;18.58;nan
62800;BME280;48842;51.046;13.796;2022-09-12T02:40:47;100461.72;;;18.57;nan
62800;BME280;48842;51.046;13.796;2022-09-12T02:43:12;100454.69;;;18.56;nan
62800;BME280;48842;51.046;13.796;2022-09-12T02:45:37;100462.66;;;18.56;nan
62800;BME280;48842;51.046;13.796;2022-09-12T02:48:09;100457.44;;;18.53;nan
62800;BME280;48842;51.046;13.796;2022-09-12T02:50:37;100453.88;;;18.53;nan
62800;BME280;48842;51.046;13.796;2022-09-12T02:53:02;100461.00;;;18.52;nan
62800;BME280;48842;51.046;13.796;2022-09-12T02:55:29;100451.28;;;18.51;nan
62800;BME280;48842;51.046;13.796;2022-09-12T02:57:55;100459.25;;;18.51;nan
62800;BME280;48842;51.046;13.796;2022-09-12T03:00:21;100458.34;;;18.52;nan
62800;BME280;48842;51.046;13.796;2022-09-12T03:03:06;100448.66;;;18.49;nan
62800;BME280;48842;51.046;13.796;2022-09-12T03:05:43;100456.66;;;18.48;nan
62800;BME280;48842;51.046;13.796;2022-09-12T03:08:40;100459.41;;;18.45;nan
62800;BME280;48842;51.046;13.796;2022-09-12T03:11:19;100470.94;;;18.44;nan
62800;BME280;48842;51.046;13.796;2022-09-12T03:14:19;100456.84;;;18.42;nan
62800;BME280;48842;51.046;13.796;2022-09-12T03:17:00;100461.31;;;18.40;nan
62800;BME280;48842;51.046;13.796;2022-09-12T03:19:57;100460.41;;;18.41;nan
62800;BME280;48842;51.046;13.796;2022-09-12T03:22:36;100467.50;;;18.40;nan
62800;BME280;48842;51.046;13.796;2022-09-12T03:25:20;100457.78;;;18.39;nan
62800;BME280;48842;51.046;13.796;2022-09-12T03:28:04;100467.53;;;18.39;nan
62800;BME280;48842;51.046;13.796;2022-09-12T03:30:39;100460.44;;;18.39;nan
62800;BME280;48842;51.046;13.796;2022-09-12T03:33:05;100456.00;;;18.40;nan
62800;BME280;48842;51.046;13.796;2022-09-12T03:35:30;100462.22;;;18.39;nan
62800;BME280;48842;51.046;13.796;2022-09-12T03:37:56;100463.13;;;18.38;nan
62800;BME280;48842;51.046;13.796;2022-09-12T03:40:21;100459.66;;;18.36;nan
62800;BME280;48842;51.046;13.796;2022-09-12T03:42:46;100455.22;;;18.36;nan
62800;BME280;48842;51.046;13.796;2022-09-12T03:45:12;100451.66;;;18.37;nan
62800;BME280;48842;51.046;13.796;2022-09-12T03:47:37;100457.84;;;18.38;nan
62800;BME280;48842;51.046;13.796;2022-09-12T03:50:04;100456.03;;;18.38;nan
62800;BME280;48842;51.046;13.796;2022-09-12T03:52:30;100456.94;;;18.39;nan
62800;BME280;48842;51.046;13.796;2022-09-12T03:54:55;100464.84;;;18.40;nan
62800;BME280;48842;51.046;13.796;2022-09-12T03:57:20;100464.81;;;18.42;nan
62800;BME280;48842;51.046;13.796;2022-09-12T03:59:47;100463.06;;;18.41;nan
62800;BME280;48842;51.046;13.796;2022-09-12T04:02:13;100464.81;;;18.42;nan
62800;BME280;48842;51.046;13.796;2022-09-12T04:04:42;100463.06;;;18.41;nan
62800;BME280;48842;51.046;13.796;2022-09-12T04:07:09;100465.72;;;18.41;nan
62800;BME280;48842;51.046;13.796;2022-09-12T04:09:34;100462.16;;;18.42;nan
62800;BME280;48842;51.046;13.796;2022-09-12T04:12:00;100467.38;;;18.45;nan
62800;BME280;48842;51.046;13.796;2022-09-12T04:14:25;100465.63;;;18.44;nan
62800;BME280;48842;51.046;13.796;2022-09-12T04:16:50;100473.56;;;18.44;nan
62800;BME280;48842;51.046;13.796;2022-09-12T04:19:16;100469.22;;;18.43;nan
62800;BME280;48842;51.046;13.796;2022-09-12T04:21:41;100469.22;;;18.43;nan
62800;BME280;48842;51.046;13.796;2022-09-12T04:24:06;100466.56;;;18.43;nan
62800;BME280;48842;51.046;13.796;2022-09-12T04:26:31;100469.22;;;18.43;nan
62800;BME280;48842;51.046;13.796;2022-09-12T04:28:57;100463.00;;;18.42;nan
62800;BME280;48842;51.046;13.796;2022-09-12T04:31:23;100478.06;;;18.42;nan
62800;BME280;48842;51.046;13.796;2022-09-12T04:33:56;100468.31;;;18.42;nan
62800;BME280;48842;51.046;13.796;2022-09-12T04:36:22;100471.00;;;18.41;nan
62800;BME280;48842;51.046;13.796;2022-09-12T04:38:48;100464.88;;;18.39;nan
62800;BME280;48842;51.046;13.796;2022-09-12T04:41:20;100472.00;;;18.37;nan
62800;BME280;48842;51.046;13.796;2022-09-12T04:43:46;100476.34;;;18.39;nan
62800;BME280;48842;51.046;13.796;2022-09-12T04:46:14;100477.31;;;18.37;nan
62800;BME280;48842;51.046;13.796;2022-09-12T04:48:41;100479.09;;;18.36;nan
62800;BME280;48842;51.046;13.796;2022-09-12T04:51:09;100478.22;;;18.36;nan
62800;BME280;48842;51.046;13.796;2022-09-12T04:53:34;100475.53;;;18.37;nan
62800;BME280;48842;51.046;13.796;2022-09-12T04:56:05;100479.94;;;18.37;nan
62800;BME280;48842;51.046;13.796;2022-09-12T04:58:32;100482.56;;;18.38;nan
62800;BME280;48842;51.046;13.796;2022-09-12T05:01:11;100489.66;;;18.38;nan
62800;BME280;48842;51.046;13.796;2022-09-12T05:03:37;100489.66;;;18.38;nan
62800;BME280;48842;51.046;13.796;2022-09-12T05:06:09;100493.22;;;18.37;nan
62800;BME280;48842;51.046;13.796;2022-09-12T05:08:35;100494.16;;;18.36;nan
62800;BME280;48842;51.046;13.796;2022-09-12T05:11:05;100487.09;;;18.35;nan
62800;BME280;48842;51.046;13.796;2022-09-12T05:13:31;100488.84;;;18.36;nan
62800;BME280;48842;51.046;13.796;2022-09-12T05:15:59;100479.09;;;18.36;nan
62800;BME280;48842;51.046;13.796;2022-09-12T05:18:25;100489.66;;;18.38;nan
62800;BME280;48842;51.046;13.796;2022-09-12T05:20:54;100494.09;;;18.37;nan
62800;BME280;48842;51.046;13.796;2022-09-12T05:23:20;100492.31;;;18.38;nan
62800;BME280;48842;51.046;13.796;2022-09-12T05:25:52;100491.50;;;18.36;nan
62800;BME280;48842;51.046;13.796;2022-09-12T05:28:19;100501.19;;;18.37;nan
62800;BME280;48842;51.046;13.796;2022-09-12T05:30:45;100499.38;;;18.39;nan
62800;BME280;48842;51.046;13.796;2022-09-12T05:33:11;100500.19;;;18.41;nan
62800;BME280;48842;51.046;13.796;2022-09-12T05:35:36;100499.28;;;18.42;nan
62800;BME280;48842;51.046;13.796;2022-09-12T05:38:03;100500.22;;;18.39;nan
62800;BME280;48842;51.046;13.796;2022-09-12T05:40:29;100504.69;;;18.39;nan
62800;BME280;48842;51.046;13.796;2022-09-12T05:42:54;100501.09;;;18.40;nan
62800;BME280;48842;51.046;13.796;2022-09-12T05:45:19;100507.28;;;18.40;nan
62800;BME280;48842;51.046;13.796;2022-09-12T05:47:45;100504.69;;;18.39;nan
62800;BME280;48842;51.046;13.796;2022-09-12T05:50:11;100513.44;;;18.41;nan
62800;BME280;48842;51.046;13.796;2022-09-12T05:52:36;100513.44;;;18.41;nan
62800;BME280;48842;51.046;13.796;2022-09-12T05:55:03;100514.31;;;18.43;nan
62800;BME280;48842;51.046;13.796;2022-09-12T05:57:28;100509.00;;;18.43;nan
62800;BME280;48842;51.046;13.796;2022-09-12T05:59:54;100521.44;;;18.39;nan
62800;BME280;48842;51.046;13.796;2022-09-12T06:02:19;100518.06;;;18.34;nan
62800;BME280;48842;51.046;13.796;2022-09-12T06:04:45;100522.50;;;18.32;nan
62800;BME280;48842;51.046;13.796;2022-09-12T06:07:10;100516.31;;;18.33;nan
62800;BME280;48842;51.046;13.796;2022-09-12T06:09:35;100515.38;;;18.36;nan
62800;BME280;48842;51.046;13.796;2022-09-12T06:12:01;100515.44;;;18.33;nan
62800;BME280;48842;51.046;13.796;2022-09-12T06:14:26;100515.44;;;18.33;nan
62800;BME280;48842;51.046;13.796;2022-09-12T06:16:51;100517.16;;;18.34;nan
62800;BME280;48842;51.046;13.796;2022-09-12T06:19:19;100521.63;;;18.33;nan
62800;BME280;48842;51.046;13.796;2022-09-12T06:21:45;100520.59;;;18.39;nan
62800;BME280;48842;51.046;13.796;2022-09-12T06:24:12;100523.19;;;18.40;nan
62800;BME280;48842;51.046;13.796;2022-09-12T06:26:38;100532.88;;;18.43;nan
62800;BME280;48842;51.046;13.796;2022-09-12T06:29:03;100523.91;;;18.47;nan
62800;BME280;48842;51.046;13.796;2022-09-12T06:31:32;100524.72;;;18.51;nan
62800;BME280;48842;51.046;13.796;2022-09-12T06:34:01;100530.78;;;18.54;nan
62800;BME280;48842;51.046;13.796;2022-09-12T06:36:28;100522.75;;;18.57;nan
62800;BME280;48842;51.046;13.796;2022-09-12T06:39:05;100527.16;;;18.58;nan
62800;BME280;48842;51.046;13.796;2022-09-12T06:41:32;100527.06;;;18.61;nan
62800;BME280;48842;51.046;13.796;2022-09-12T06:43:58;100528.84;;;18.61;nan
62800;BME280;48842;51.046;13.796;2022-09-12T06:46:24;100532.38;;;18.61;nan
62800;BME280;48842;51.046;13.796;2022-09-12T06:48:50;100530.66;;;18.60;nan
62800;BME280;48842;51.046;13.796;2022-09-12T06:51:16;100535.16;;;18.57;nan
62800;BME280;48842;51.046;13.796;2022-09-12T06:53:43;100538.66;;;18.57;nan
62800;BME280;48842;51.046;13.796;2022-09-12T06:56:12;100538.56;;;18.62;nan
62800;BME280;48842;51.046;13.796;2022-09-12T06:58:38;100542.84;;;18.67;nan
62800;BME280;48842;51.046;13.796;2022-09-12T07:01:18;100541.84;;;18.72;nan
62800;BME280;48842;51.046;13.796;2022-09-12T07:03:47;100540.94;;;18.73;nan
62800;BME280;48842;51.046;13.796;2022-09-12T07:06:15;100536.47;;;18.73;nan
62800;BME280;48842;51.046;13.796;2022-09-12T07:08:40;100541.78;;;18.73;nan
62800;BME280;48842;51.046;13.796;2022-09-12T07:13:36;100542.59;;;18.77;nan
62800;BME280;48842;51.046;13.796;2022-09-12T07:16:03;100546.06;;;18.79;nan
62800;BME280;48842;51.046;13.796;2022-09-12T07:18:29;100554.88;;;18.81;nan
62800;BME280;48842;51.046;13.796;2022-09-12T07:20:55;100545.91;;;18.85;nan
62800;BME280;48842;51.046;13.796;2022-09-12T07:23:20;100549.44;;;18.87;nan
62800;BME280;48842;51.046;13.796;2022-09-12T07:25:52;100554.78;;;18.84;nan
62800;BME280;48842;51.046;13.796;2022-09-12T07:28:18;100557.53;;;18.81;nan
62800;BME280;48842;51.046;13.796;2022-09-12T07:30:43;100559.25;;;18.82;nan
62800;BME280;48842;51.046;13.796;2022-09-12T07:33:09;100562.00;;;18.79;nan
62800;BME280;48842;51.046;13.796;2022-09-12T07:35:34;100561.13;;;18.78;nan
62800;BME280;48842;51.046;13.796;2022-09-12T07:37:59;100553.13;;;18.80;nan
62800;BME280;48842;51.046;13.796;2022-09-12T07:40:25;100554.91;;;18.79;nan
62800;BME280;48842;51.046;13.796;2022-09-12T07:42:50;100558.53;;;18.77;nan
62800;BME280;48842;51.046;13.796;2022-09-12T07:45:15;100554.97;;;18.78;nan
62800;BME280;48842;51.046;13.796;2022-09-12T07:47:40;100558.44;;;18.80;nan
62800;BME280;48842;51.046;13.796;2022-09-12T07:50:06;100555.78;;;18.80;nan
62800;BME280;48842;51.046;13.796;2022-09-12T07:52:31;100556.59;;;18.82;nan
62800;BME280;48842;51.046;13.796;2022-09-12T07:54:56;100559.09;;;18.90;nan
62800;BME280;48842;51.046;13.796;2022-09-12T07:57:21;100551.91;;;18.93;nan
62800;BME280;48842;51.046;13.796;2022-09-12T07:59:47;100553.72;;;18.93;nan
62800;BME280;48842;51.046;13.796;2022-09-12T08:02:12;100554.59;;;18.92;nan
62800;BME280;48842;51.046;13.796;2022-09-12T08:04:40;100560.81;;;18.91;nan
62800;BME280;48842;51.046;13.796;2022-09-12T08:07:06;100563.47;;;18.91;nan
62800;BME280;48842;51.046;13.796;2022-09-12T08:09:31;100555.31;;;18.98;nan
62800;BME280;48842;51.046;13.796;2022-09-12T08:11:57;100562.22;;;19.06;nan
62800;BME280;48842;51.046;13.796;2022-09-12T08:14:22;100562.94;;;19.11;nan
62800;BME280;48842;51.046;13.796;2022-09-12T08:16:47;100556.72;;;19.12;nan
62800;BME280;48842;51.046;13.796;2022-09-12T08:19:12;100553.97;;;19.15;nan
62800;BME280;48842;51.046;13.796;2022-09-12T08:21:38;100561.81;;;19.19;nan
62800;BME280;48842;51.046;13.796;2022-09-12T08:24:05;100567.06;;;19.21;nan
62800;BME280;48842;51.046;13.796;2022-09-12T08:26:31;100569.66;;;19.24;nan
62800;BME280;48842;51.046;13.796;2022-09-12T08:28:57;100572.25;;;19.26;nan
62800;BME280;48842;51.046;13.796;2022-09-12T08:31:24;100563.38;;;19.27;nan
62800;BME280;48842;51.046;13.796;2022-09-12T08:33:50;100560.75;;;19.25;nan
62800;BME280;48842;51.046;13.796;2022-09-12T08:36:20;100566.22;;;19.21;nan
62800;BME280;48842;51.046;13.796;2022-09-12T08:38:48;100567.03;;;19.23;nan
62800;BME280;48842;51.046;13.796;2022-09-12T08:41:34;100560.75;;;19.25;nan
62800;BME280;48842;51.046;13.796;2022-09-12T08:49:56;100566.75;;;19.33;nan
62800;BME280;48842;51.046;13.796;2022-09-12T08:54:55;100563.25;;;19.31;nan
62800;BME280;48842;51.046;13.796;2022-09-12T08:57:21;100558.88;;;19.30;nan
62800;BME280;48842;51.046;13.796;2022-09-12T08:59:47;100564.34;;;19.24;nan
62800;BME280;48842;51.046;13.796;2022-09-12T09:02:44;100556.44;;;19.21;nan
62800;BME280;48842;51.046;13.796;2022-09-12T09:11:12;100553.28;;;19.40;nan
62800;BME280;48842;51.046;13.796;2022-09-12T09:13:52;100563.81;;;19.43;nan
62800;BME280;48842;51.046;13.796;2022-09-12T09:16:42;100558.34;;;19.47;nan
62800;BME280;48842;51.046;13.796;2022-09-12T09:19:14;100557.53;;;19.45;nan
62800;BME280;48842;51.046;13.796;2022-09-12T09:21:59;100551.53;;;19.39;nan
62800;BME280;48842;51.046;13.796;2022-09-12T09:24:32;100551.63;;;19.35;nan
62800;BME280;48842;51.046;13.796;2022-09-12T09:27:04;100552.44;;;19.38;nan
62800;BME280;48842;51.046;13.796;2022-09-12T09:29:43;100551.44;;;19.42;nan
62800;BME280;48842;51.046;13.796;2022-09-12T09:32:16;100538.91;;;19.47;nan
62800;BME280;48842;51.046;13.796;2022-09-12T09:34:42;100543.94;;;19.56;nan
62800;BME280;48842;51.046;13.796;2022-09-12T09:37:33;100529.72;;;19.57;nan
62800;BME280;48842;51.046;13.796;2022-09-12T09:42:40;100539.44;;;19.58;nan
62800;BME280;48842;51.046;13.796;2022-09-12T09:45:17;100537.66;;;19.59;nan
62800;BME280;48842;51.046;13.796;2022-09-12T09:47:47;100542.00;;;19.61;nan
62800;BME280;48842;51.046;13.796;2022-09-12T09:50:15;100536.59;;;19.64;nan
62800;BME280;48842;51.046;13.796;2022-09-12T09:52:41;100536.41;;;19.70;nan
62800;BME280;48842;51.046;13.796;2022-09-12T09:55:12;100539.06;;;19.70;nan
62800;BME280;48842;51.046;13.796;2022-09-12T09:57:41;100524.75;;;19.75;nan
62800;BME280;48842;51.046;13.796;2022-09-12T10:00:26;100523.78;;;19.79;nan
62800;BME280;48842;51.046;13.796;2022-09-12T10:03:46;100522.69;;;19.86;nan
62800;BME280;48842;51.046;13.796;2022-09-12T10:05:53;100528.59;;;19.94;nan
62800;BME280;48842;51.046;13.796;2022-09-12T10:08:24;100520.41;;;20.02;nan
62800;BME280;48842;51.046;13.796;2022-09-12T10:13:26;100525.25;;;20.16;nan
62800;BME280;48842;51.046;13.796;2022-09-12T10:15:59;100523.56;;;20.13;nan
62800;BME280;48842;51.046;13.796;2022-09-12T10:18:39;100522.66;;;20.14;nan
62800;BME280;48842;51.046;13.796;2022-09-12T10:21:38;100513.81;;;20.14;nan
62800;BME280;48842;51.046;13.796;2022-09-12T10:24:24;100512.00;;;20.14;nan
62800;BME280;48842;51.046;13.796;2022-09-12T10:29:48;100512.63;;;20.22;nan
62800;BME280;48842;51.046;13.796;2022-09-12T10:32:43;100515.94;;;20.29;nan
62800;BME280;48842;51.046;13.796;2022-09-12T10:35:49;100510.41;;;20.35;nan
62800;BME280;48842;51.046;13.796;2022-09-12T10:38:36;100518.19;;;20.42;nan
62800;BME280;48842;51.046;13.796;2022-09-12T10:41:06;100513.56;;;20.47;nan
62800;BME280;48842;51.046;13.796;2022-09-12T10:43:39;100514.34;;;20.50;nan
62800;BME280;48842;51.046;13.796;2022-09-12T10:48:44;100510.63;;;20.56;nan
62800;BME280;48842;51.046;13.796;2022-09-12T10:53:52;100497.94;;;20.63;nan
62800;BME280;48842;51.046;13.796;2022-09-12T10:56:24;100504.34;;;20.57;nan
62800;BME280;48842;51.046;13.796;2022-09-12T11:01:43;100487.41;;;20.60;nan
62800;BME280;48842;51.046;13.796;2022-09-12T11:04:26;100483.88;;;20.59;nan
62800;BME280;48842;51.046;13.796;2022-09-12T11:13:32;100471.38;;;20.61;nan
62800;BME280;48842;51.046;13.796;2022-09-12T11:16:14;100469.63;;;20.60;nan
62800;BME280;48842;51.046;13.796;2022-09-12T11:19:04;100480.50;;;20.54;nan
62800;BME280;48842;51.046;13.796;2022-09-12T11:24:34;100481.13;;;20.62;nan
62800;BME280;48842;51.046;13.796;2022-09-12T11:27:14;100480.13;;;20.66;nan
62800;BME280;48842;51.046;13.796;2022-09-12T11:29:53;100472.81;;;20.71;nan
62800;BME280;48842;51.046;13.796;2022-09-12T11:35:17;100474.03;;;20.86;nan
62800;BME280;48842;51.046;13.796;2022-09-12T11:37:55;100467.50;;;20.95;nan
62800;BME280;48842;51.046;13.796;2022-09-12T11:43:31;100471.47;;;21.08;nan
62800;BME280;48842;51.046;13.796;2022-09-12T11:46:02;100466.47;;;21.23;nan
62800;BME280;48842;51.046;13.796;2022-09-12T11:48:40;100473.25;;;21.32;nan
62800;BME280;48842;51.046;13.796;2022-09-12T11:51:16;100469.34;;;21.40;nan
62800;BME280;48842;51.046;13.796;2022-09-12T11:53:43;100470.84;;;21.48;nan
62800;BME280;48842;51.046;13.796;2022-09-12T11:56:16;100467.94;;;21.55;nan
62800;BME280;48842;51.046;13.796;2022-09-12T11:58:48;100466.13;;;21.56;nan
62800;BME280;48842;51.046;13.796;2022-09-12T12:01:22;100475.03;;;21.55;nan
62800;BME280;48842;51.046;13.796;2022-09-12T12:03:49;100479.53;;;21.54;nan
62800;BME280;48842;51.046;13.796;2022-09-12T12:06:26;100475.16;;;21.52;nan
62800;BME280;48842;51.046;13.796;2022-09-12T12:08:54;100470.75;;;21.51;nan
62800;BME280;48842;51.046;13.796;2022-09-12T12:11:26;100472.31;;;21.56;nan
62800;BME280;48842;51.046;13.796;2022-09-12T12:14:01;100475.75;;;21.60;nan
62800;BME280;48842;51.046;13.796;2022-09-12T12:16:30;100469.25;;;21.67;nan
62800;BME280;48842;51.046;13.796;2022-09-12T12:19:02;100469.06;;;21.72;nan
62800;BME280;48842;51.046;13.796;2022-09-12T12:24:02;100456.22;;;21.82;nan
62800;BME280;48842;51.046;13.796;2022-09-12T12:29:03;100451.69;;;21.84;nan
62800;BME280;48842;51.046;13.796;2022-09-12T12:31:29;100450.75;;;21.85;nan
62800;BME280;48842;51.046;13.796;2022-09-12T12:34:00;100452.34;;;21.89;nan
62800;BME280;48842;51.046;13.796;2022-09-12T12:36:35;100451.06;;;21.99;nan
62800;BME280;48842;51.046;13.796;2022-09-12T12:39:53;100442.66;;;22.08;nan
62800;BME280;48842;51.046;13.796;2022-09-12T12:42:06;100445.97;;;22.13;nan
62800;BME280;48842;51.046;13.796;2022-09-12T12:44:47;100439.44;;;22.21;nan
62800;BME280;48842;51.046;13.796;2022-09-12T12:47:17;100439.94;;;22.30;nan
62800;BME280;48842;51.046;13.796;2022-09-12T12:49:52;100441.50;;;22.36;nan
62800;BME280;48842;51.046;13.796;2022-09-12T12:52:19;100430.41;;;22.45;nan
62800;BME280;48842;51.046;13.796;2022-09-12T12:57:24;100436.69;;;22.65;nan
62800;BME280;48842;51.046;13.796;2022-09-12T13:00:05;100432.91;;;22.69;nan
62800;BME280;48842;51.046;13.796;2022-09-12T13:02:38;100424.66;;;22.75;nan
62800;BME280;48842;51.046;13.796;2022-09-12T13:05:14;100417.47;;;22.76;nan
62800;BME280;48842;51.046;13.796;2022-09-12T13:07:41;100413.59;;;22.83;nan
62800;BME280;48842;51.046;13.796;2022-09-12T13:10:22;100413.19;;;23.11;nan
62800;BME280;48842;51.046;13.796;2022-09-12T13:12:49;100403.44;;;23.48;nan
62800;BME280;48842;51.046;13.796;2022-09-12T13:15:45;100403.59;;;23.99;nan
62800;BME280;48842;51.046;13.796;2022-09-12T13:18:15;100402.44;;;24.56;nan
62800;BME280;48842;51.046;13.796;2022-09-12T13:20:58;100392.28;;;25.28;nan
62800;BME280;48842;51.046;13.796;2022-09-12T13:23:30;100395.94;;;25.89;nan
62800;BME280;48842;51.046;13.796;2022-09-12T13:25:59;100386.63;;;26.25;nan
62800;BME280;48842;51.046;13.796;2022-09-12T13:28:27;100376.13;;;26.65;nan
62800;BME280;48842;51.046;13.796;2022-09-12T13:31:13;100376.88;;;26.96;nan
62800;BME280;48842;51.046;13.796;2022-09-12T13:33:45;100377.72;;;27.11;nan
62800;BME280;48842;51.046;13.796;2022-09-12T13:36:27;100379.97;;;27.32;nan
62800;BME280;48842;51.046;13.796;2022-09-12T13:39:13;100385.59;;;27.56;nan
62800;BME280;48842;51.046;13.796;2022-09-12T13:42:03;100379.94;;;27.74;nan
62800;BME280;48842;51.046;13.796;2022-09-12T13:44:40;100384.91;;;27.80;nan
62800;BME280;48842;51.046;13.796;2022-09-12T13:47:12;100384.69;;;27.70;nan
62800;BME280;48842;51.046;13.796;2022-09-12T13:49:39;100375.19;;;27.64;nan
62800;BME280;48842;51.046;13.796;2022-09-12T13:52:19;100375.78;;;27.55;nan
62800;BME280;48842;51.046;13.796;2022-09-12T13:54:49;100371.97;;;27.45;nan
62800;BME280;48842;51.046;13.796;2022-09-12T13:57:33;100375.66;;;27.29;nan
62800;BME280;48842;51.046;13.796;2022-09-12T14:00:06;100369.75;;;27.10;nan
62800;BME280;48842;51.046;13.796;2022-09-12T14:02:34;100369.00;;;26.93;nan
62800;BME280;48842;51.046;13.796;2022-09-12T14:05:00;100367.19;;;26.79;nan
62800;BME280;48842;51.046;13.796;2022-09-12T14:10:22;100369.97;;;26.49;nan
62800;BME280;48842;51.046;13.796;2022-09-12T14:12:49;100372.28;;;26.41;nan
62800;BME280;48842;51.046;13.796;2022-09-12T14:15:24;100368.22;;;26.34;nan
62800;BME280;48842;51.046;13.796;2022-09-12T14:17:53;100363.72;;;26.20;nan
62800;BME280;48842;51.046;13.796;2022-09-12T14:20:20;100364.84;;;26.01;nan
62800;BME280;48842;51.046;13.796;2022-09-12T14:22:48;100368.94;;;25.76;nan
62800;BME280;48842;51.046;13.796;2022-09-12T14:25:19;100363.19;;;25.52;nan
62800;BME280;48842;51.046;13.796;2022-09-12T14:27:49;100363.31;;;25.35;nan